createdAt,value
2022-11-24T00:04:09.234Z,94861.00
2022-11-24T00:09:37.063Z,94886.00
2022-11-24T00:15:05.295Z,94902.00
2022-11-24T00:20:33.014Z,94904.00
2022-11-24T00:26:19.853Z,94903.00
2022-11-24T00:31:47.754Z,94898.00
2022-11-24T00:37:15.747Z,94912.00
2022-11-24T00:42:43.517Z,94919.00
2022-11-24T00:48:11.561Z,94931.00
2022-11-24T00:53:41.217Z,94935.00
2022-11-24T00:59:09.132Z,94942.00
2022-11-24T01:04:37.004Z,94971.00
2022-11-24T01:10:05.620Z,94966.00
2022-11-24T01:15:36.304Z,94988.00
2022-11-24T01:21:09.866Z,94985.00
2022-11-24T01:26:38.365Z,94994.00
2022-11-24T01:32:06.228Z,95003.00
2022-11-24T01:37:34.113Z,95011.00
2022-11-24T01:43:01.884Z,95021.00
2022-11-24T01:48:43.768Z,95017.00
2022-11-24T01:54:20.095Z,95025.00
2022-11-24T01:59:51.892Z,95047.00
2022-11-24T02:05:28.579Z,95047.00
2022-11-24T02:10:57.471Z,95057.00
2022-11-24T02:16:25.767Z,95057.00
2022-11-24T02:21:53.665Z,95067.00
2022-11-24T02:27:21.456Z,95072.00
2022-11-24T02:32:50.364Z,95078.00
2022-11-24T02:38:18.366Z,95081.00
2022-11-24T02:43:53.560Z,95096.00
2022-11-24T02:49:21.441Z,95101.00
2022-11-24T02:54:49.307Z,95101.00
2022-11-24T03:00:18.427Z,95108.00
2022-11-24T03:05:46.422Z,95113.00
2022-11-24T03:11:14.280Z,95103.00
2022-11-24T03:16:42.181Z,95116.00
2022-11-24T03:22:10.034Z,95121.00
2022-11-24T03:27:38.003Z,95129.00
2022-11-24T03:33:07.353Z,95136.00
2022-11-24T03:38:36.272Z,95138.00
2022-11-24T03:44:04.505Z,95143.00
2022-11-24T03:49:32.675Z,95138.00
2022-11-24T03:55:00.857Z,95145.00
2022-11-24T04:00:29.253Z,95144.00
2022-11-24T04:05:57.055Z,95153.00
2022-11-24T04:11:43.627Z,95165.00
2022-11-24T04:17:11.510Z,95164.00
2022-11-24T04:22:40.117Z,95172.00
2022-11-24T04:28:08.042Z,95168.00
2022-11-24T04:33:36.193Z,95173.00
2022-11-24T04:39:23.989Z,95171.00
2022-11-24T04:44:52.216Z,95189.00
2022-11-24T04:50:20.850Z,95191.00
2022-11-24T04:55:48.746Z,95195.00
2022-11-24T05:01:17.814Z,95203.00
2022-11-24T05:06:45.602Z,95206.00
2022-11-24T05:12:13.557Z,95223.00
2022-11-24T05:17:41.399Z,95232.00
2022-11-24T05:23:09.240Z,95224.00
2022-11-24T05:28:37.222Z,95233.00
2022-11-24T05:34:05.216Z,95242.00
2022-11-24T05:39:35.486Z,95247.00
2022-11-24T05:45:03.659Z,95248.00
2022-11-24T05:50:31.440Z,95254.00
2022-11-24T05:55:59.206Z,95259.00
2022-11-24T06:01:26.977Z,95266.00
2022-11-24T06:06:54.878Z,95279.00
2022-11-24T06:12:22.765Z,95287.00
2022-11-24T06:17:55.912Z,95292.00
2022-11-24T06:23:23.758Z,95298.00
2022-11-24T06:28:51.479Z,95302.00
2022-11-24T06:34:19.336Z,95310.00
2022-11-24T06:39:49.840Z,95314.00
2022-11-24T06:45:18.028Z,95321.00
2022-11-24T06:50:45.754Z,95330.00
2022-11-24T06:56:22.958Z,95322.00
2022-11-24T07:01:51.012Z,95323.00
2022-11-24T07:07:18.945Z,95321.00
2022-11-24T07:12:51.026Z,95334.00
2022-11-24T07:18:18.861Z,95335.00
2022-11-24T07:23:51.831Z,95341.00
2022-11-24T07:29:19.722Z,95345.00
2022-11-24T07:34:47.579Z,95346.00
2022-11-24T07:40:15.483Z,95336.00
2022-11-24T07:45:43.373Z,95354.00
2022-11-24T07:51:11.621Z,95345.00
2022-11-24T07:56:39.496Z,95354.00
2022-11-24T08:02:07.588Z,95350.00
2022-11-24T08:07:35.412Z,95346.00
2022-11-24T08:13:03.630Z,95347.00
2022-11-24T08:18:31.444Z,95333.00
2022-11-24T08:23:59.270Z,95341.00
2022-11-24T08:29:31.201Z,95336.00
2022-11-24T08:35:08.541Z,95339.00
2022-11-24T08:40:41.445Z,95359.00
2022-11-24T08:46:13.897Z,95367.00
2022-11-24T08:51:43.194Z,95364.00
2022-11-24T08:57:17.290Z,95358.00
2022-11-24T09:02:59.304Z,95357.00
2022-11-24T09:08:27.309Z,95355.00
2022-11-24T09:13:56.824Z,95356.00
2022-11-24T09:19:24.879Z,95353.00
2022-11-24T09:24:52.695Z,95360.00
2022-11-24T09:30:20.625Z,95357.00
2022-11-24T09:35:50.712Z,95360.00
2022-11-24T09:41:18.396Z,95363.00
2022-11-24T09:47:20.895Z,95366.00
2022-11-24T09:53:14.220Z,95372.00
2022-11-24T09:59:08.505Z,95378.00
2022-11-24T10:04:43.813Z,95361.00
2022-11-24T10:10:25.942Z,95372.00
2022-11-24T10:16:13.518Z,95371.00
2022-11-24T10:22:20.487Z,95378.00
2022-11-24T10:27:57.791Z,95384.00
2022-11-24T10:33:30.864Z,95391.00
2022-11-24T10:39:33.061Z,95401.00
2022-11-24T10:45:16.679Z,95414.00
2022-11-24T10:50:45.253Z,95421.00
2022-11-24T10:56:13.250Z,95424.00
2022-11-24T11:01:41.274Z,95432.00
2022-11-24T11:07:25.380Z,95430.00
2022-11-24T11:12:53.176Z,95427.00
2022-11-24T11:18:22.800Z,95409.00
2022-11-24T11:23:52.327Z,95419.00
2022-11-24T11:35:13.470Z,95427.00
2022-11-24T11:40:44.715Z,95422.00
2022-11-24T11:46:17.788Z,95427.00
2022-11-24T11:52:27.900Z,95442.00
2022-11-24T11:58:36.604Z,95440.00
2022-11-24T12:04:19.283Z,95450.00
2022-11-24T12:10:13.332Z,95444.00
2022-11-24T12:16:22.809Z,95453.00
2022-11-24T12:22:05.981Z,95460.00
2022-11-24T12:27:53.534Z,95454.00
2022-11-24T12:33:52.449Z,95453.00
2022-11-24T12:39:40.600Z,95466.00
2022-11-24T12:45:40.865Z,95470.00
2022-11-24T12:51:18.898Z,95464.00
2022-11-24T12:57:07.367Z,95471.00
2022-11-24T13:02:47.618Z,95468.00
2022-11-24T13:08:19.837Z,95477.00
2022-11-24T13:14:18.402Z,95476.00
2022-11-24T13:19:48.594Z,95492.00
2022-11-24T13:25:18.656Z,95484.00
2022-11-24T13:30:46.616Z,95486.00
2022-11-24T13:36:23.745Z,95494.00
2022-11-24T13:41:52.987Z,95492.00
2022-11-24T13:47:33.929Z,95494.00
2022-11-24T13:53:22.925Z,95500.00
2022-11-24T13:59:15.496Z,95501.00
2022-11-24T14:04:44.990Z,95506.00
2022-11-24T14:10:26.342Z,95509.00
2022-11-24T14:16:23.093Z,95513.00
2022-11-24T14:21:50.899Z,95507.00
2022-11-24T14:27:26.233Z,95513.00
2022-11-24T14:33:00.166Z,95506.00
2022-11-24T14:38:28.297Z,95517.00
2022-11-24T14:44:25.093Z,95526.00
2022-11-24T14:49:54.209Z,95546.00
2022-11-24T14:55:33.059Z,95553.00
2022-11-24T15:01:29.291Z,95584.00
2022-11-24T15:07:29.255Z,95591.00
2022-11-24T15:13:00.911Z,95582.00
2022-11-24T15:19:02.386Z,95572.00
2022-11-24T15:24:30.174Z,95581.00
2022-11-24T15:29:58.076Z,95569.00
2022-11-24T15:35:31.565Z,95579.00
2022-11-24T15:41:01.426Z,95595.00
2022-11-24T15:46:37.716Z,95586.00
2022-11-24T15:52:06.910Z,95577.00
2022-11-24T15:57:34.762Z,95581.00
2022-11-24T16:03:23.977Z,95593.00
2022-11-24T16:08:50.366Z,95602.00
2022-11-24T16:14:18.272Z,95606.00
2022-11-24T16:19:46.169Z,95600.00
2022-11-24T16:25:15.088Z,95608.00
2022-11-24T16:30:42.927Z,95611.00
2022-11-24T16:36:10.756Z,95608.00
2022-11-24T16:41:38.592Z,95623.00
2022-11-24T16:47:06.451Z,95612.00
2022-11-24T16:52:34.341Z,95610.00
2022-11-24T16:58:04.994Z,95616.00
2022-11-24T17:03:34.688Z,95612.00
2022-11-24T17:09:02.550Z,95608.00
2022-11-24T17:14:30.302Z,95611.00
2022-11-24T17:19:58.170Z,95622.00
2022-11-24T17:25:28.582Z,95619.00
2022-11-24T17:30:56.968Z,95622.00
2022-11-24T17:36:25.230Z,95627.00
2022-11-24T17:41:53.536Z,95627.00
2022-11-24T17:47:25.276Z,95640.00
2022-11-24T17:52:53.487Z,95636.00
2022-11-24T17:58:22.417Z,95625.00
2022-11-24T18:03:53.643Z,95631.00
2022-11-24T18:09:21.830Z,95627.00
2022-11-24T18:14:49.757Z,95631.00
2022-11-24T18:20:17.618Z,95634.00
2022-11-24T18:25:56.728Z,95632.00
2022-11-24T18:31:26.437Z,95633.00
2022-11-24T18:36:54.303Z,95629.00
2022-11-24T18:42:22.417Z,95634.00
2022-11-24T18:47:53.339Z,95628.00
2022-11-24T18:53:25.327Z,95636.00
2022-11-24T18:58:55.304Z,95625.00
2022-11-24T19:04:24.240Z,95634.00
2022-11-24T19:09:53.223Z,95618.00
2022-11-24T19:15:21.266Z,95625.00
2022-11-24T19:20:49.143Z,95624.00
2022-11-24T19:27:03.114Z,95625.00
2022-11-24T19:32:32.820Z,95605.00
2022-11-24T19:38:01.724Z,95617.00
2022-11-24T19:43:30.524Z,95615.00
2022-11-24T19:49:02.870Z,95620.00
2022-11-24T19:54:31.428Z,95619.00
2022-11-24T19:59:59.333Z,95638.00
2022-11-24T20:05:27.201Z,95622.00
2022-11-24T20:10:55.017Z,95625.00
2022-11-24T20:16:28.183Z,95625.00
2022-11-24T20:21:56.217Z,95627.00
2022-11-24T20:27:24.173Z,95629.00
2022-11-24T20:32:52.061Z,95628.00
2022-11-24T20:38:19.769Z,95631.00
2022-11-24T20:43:48.615Z,95620.00
2022-11-24T20:49:20.669Z,95625.00
2022-11-24T20:54:48.581Z,95622.00
2022-11-24T21:00:16.840Z,95611.00
2022-11-24T21:05:44.771Z,95621.00
2022-11-24T21:11:15.027Z,95611.00
2022-11-24T21:16:45.949Z,95617.00
2022-11-24T21:22:13.742Z,95618.00
2022-11-24T21:27:41.574Z,95621.00
2022-11-24T21:33:09.454Z,95611.00
2022-11-24T21:38:38.402Z,95618.00
2022-11-24T21:44:06.441Z,95608.00
2022-11-24T21:49:34.137Z,95605.00
2022-11-24T21:55:01.923Z,95611.00
2022-11-24T22:00:29.779Z,95617.00
2022-11-24T22:06:00.617Z,95611.00
2022-11-24T22:11:28.423Z,95616.00
2022-11-24T22:16:56.251Z,95616.00
2022-11-24T22:22:24.146Z,95620.00
2022-11-24T22:27:52.910Z,95624.00
2022-11-24T22:33:20.723Z,95614.00
2022-11-24T22:39:04.506Z,95607.00
2022-11-24T22:44:32.308Z,95601.00
2022-11-24T22:50:00.138Z,95605.00
2022-11-24T22:55:28.232Z,95604.00
2022-11-24T23:00:56.092Z,95611.00
2022-11-24T23:06:27.048Z,95604.00
2022-11-24T23:11:55.010Z,95614.00
2022-11-24T23:17:23.013Z,95614.00
2022-11-24T23:22:50.908Z,95615.00
2022-11-24T23:28:18.654Z,95612.00
2022-11-24T23:33:47.090Z,95605.00
2022-11-24T23:39:15.104Z,95604.00
2022-11-24T23:44:42.877Z,95595.00
2022-11-24T23:50:10.970Z,95591.00
2022-11-24T23:55:38.705Z,95591.00
